sensor_id;sensor_type;location;lat;lon;timestamp;P1;durP1;ratioP1;P2;durP2;ratioP2
7821;SDS011;3956;50.558;9.678;2022-08-19T00:01:54;26.67;;;20.50;;
7821;SDS011;3956;50.558;9.678;2022-08-19T00:04:25;26.87;;;20.27;;
7821;SDS011;3956;50.558;9.678;2022-08-19T00:06:55;23.97;;;19.70;;
7821;SDS011;3956;50.558;9.678;2022-08-19T00:09:25;25.80;;;20.77;;
7821;SDS011;3956;50.558;9.678;2022-08-19T00:11:55;25.57;;;20.43;;
7821;SDS011;3956;50.558;9.678;2022-08-19T00:14:25;23.77;;;20.30;;
7821;SDS011;3956;50.558;9.678;2022-08-19T00:16:57;26.83;;;20.80;;
7821;SDS011;3956;50.558;9.678;2022-08-19T00:19:26;25.77;;;19.90;;
7821;SDS011;3956;50.558;9.678;2022-08-19T00:21:55;25.17;;;20.07;;
7821;SDS011;3956;50.558;9.678;2022-08-19T00:24:23;24.47;;;20.33;;
7821;SDS011;3956;50.558;9.678;2022-08-19T00:26:52;24.30;;;19.97;;
7821;SDS011;3956;50.558;9.678;2022-08-19T00:29:42;24.20;;;20.20;;
7821;SDS011;3956;50.558;9.678;2022-08-19T00:32:17;24.47;;;20.37;;
7821;SDS011;3956;50.558;9.678;2022-08-19T00:34:46;23.23;;;20.03;;
7821;SDS011;3956;50.558;9.678;2022-08-19T00:37:15;23.83;;;20.33;;
7821;SDS011;3956;50.558;9.678;2022-08-19T00:39:43;27.90;;;21.17;;
7821;SDS011;3956;50.558;9.678;2022-08-19T00:42:16;25.00;;;21.10;;
7821;SDS011;3956;50.558;9.678;2022-08-19T00:44:45;25.77;;;20.07;;
7821;SDS011;3956;50.558;9.678;2022-08-19T00:47:13;24.70;;;20.13;;
7821;SDS011;3956;50.558;9.678;2022-08-19T00:49:43;24.43;;;20.43;;
7821;SDS011;3956;50.558;9.678;2022-08-19T00:52:18;24.80;;;20.63;;
7821;SDS011;3956;50.558;9.678;2022-08-19T00:54:50;25.70;;;20.77;;
7821;SDS011;3956;50.558;9.678;2022-08-19T00:57:22;24.43;;;19.53;;
7821;SDS011;3956;50.558;9.678;2022-08-19T00:59:54;24.17;;;20.40;;
7821;SDS011;3956;50.558;9.678;2022-08-19T01:02:28;25.07;;;21.03;;
7821;SDS011;3956;50.558;9.678;2022-08-19T01:04:59;23.63;;;19.80;;
7821;SDS011;3956;50.558;9.678;2022-08-19T01:07:29;24.83;;;20.17;;
7821;SDS011;3956;50.558;9.678;2022-08-19T01:10:03;22.93;;;19.10;;
7821;SDS011;3956;50.558;9.678;2022-08-19T01:12:35;23.83;;;19.80;;
7821;SDS011;3956;50.558;9.678;2022-08-19T01:15:05;26.20;;;20.30;;
7821;SDS011;3956;50.558;9.678;2022-08-19T01:17:35;24.47;;;19.47;;
7821;SDS011;3956;50.558;9.678;2022-08-19T01:20:05;25.37;;;20.23;;
7821;SDS011;3956;50.558;9.678;2022-08-19T01:22:39;25.60;;;20.50;;
7821;SDS011;3956;50.558;9.678;2022-08-19T01:25:13;27.13;;;20.87;;
7821;SDS011;3956;50.558;9.678;2022-08-19T01:27:43;24.53;;;19.53;;
7821;SDS011;3956;50.558;9.678;2022-08-19T01:30:15;25.17;;;20.33;;
7821;SDS011;3956;50.558;9.678;2022-08-19T01:32:52;22.70;;;19.87;;
7821;SDS011;3956;50.558;9.678;2022-08-19T01:35:22;28.50;;;21.10;;
7821;SDS011;3956;50.558;9.678;2022-08-19T01:37:54;24.87;;;20.77;;
7821;SDS011;3956;50.558;9.678;2022-08-19T01:40:26;25.63;;;20.67;;
7821;SDS011;3956;50.558;9.678;2022-08-19T01:42:59;24.20;;;20.50;;
7821;SDS011;3956;50.558;9.678;2022-08-19T01:45:28;25.87;;;21.10;;
7821;SDS011;3956;50.558;9.678;2022-08-19T01:47:58;23.60;;;20.13;;
7821;SDS011;3956;50.558;9.678;2022-08-19T01:50:28;24.43;;;20.10;;
7821;SDS011;3956;50.558;9.678;2022-08-19T01:52:58;22.17;;;19.80;;
7821;SDS011;3956;50.558;9.678;2022-08-19T01:55:32;24.47;;;20.37;;
7821;SDS011;3956;50.558;9.678;2022-08-19T01:58:07;25.33;;;20.03;;
7821;SDS011;3956;50.558;9.678;2022-08-19T02:00:38;23.83;;;19.70;;
7821;SDS011;3956;50.558;9.678;2022-08-19T02:03:06;25.17;;;20.87;;
7821;SDS011;3956;50.558;9.678;2022-08-19T02:05:35;25.63;;;20.73;;
7821;SDS011;3956;50.558;9.678;2022-08-19T02:08:05;22.27;;;19.33;;
7821;SDS011;3956;50.558;9.678;2022-08-19T02:10:37;23.90;;;19.77;;
7821;SDS011;3956;50.558;9.678;2022-08-19T02:13:08;24.13;;;19.27;;
7821;SDS011;3956;50.558;9.678;2022-08-19T02:15:37;24.70;;;20.47;;
7821;SDS011;3956;50.558;9.678;2022-08-19T02:18:06;25.93;;;20.50;;
7821;SDS011;3956;50.558;9.678;2022-08-19T02:20:35;25.17;;;19.30;;
7821;SDS011;3956;50.558;9.678;2022-08-19T02:23:06;24.57;;;20.00;;
7821;SDS011;3956;50.558;9.678;2022-08-19T02:25:41;21.87;;;18.60;;
7821;SDS011;3956;50.558;9.678;2022-08-19T02:28:10;23.13;;;19.03;;
7821;SDS011;3956;50.558;9.678;2022-08-19T02:30:44;23.27;;;19.40;;
7821;SDS011;3956;50.558;9.678;2022-08-19T02:33:14;22.50;;;18.33;;
7821;SDS011;3956;50.558;9.678;2022-08-19T02:35:43;22.33;;;18.23;;
7821;SDS011;3956;50.558;9.678;2022-08-19T02:38:13;24.57;;;19.33;;
7821;SDS011;3956;50.558;9.678;2022-08-19T02:40:55;24.03;;;18.63;;
7821;SDS011;3956;50.558;9.678;2022-08-19T02:43:26;23.63;;;19.17;;
7821;SDS011;3956;50.558;9.678;2022-08-19T02:45:59;22.90;;;18.73;;
7821;SDS011;3956;50.558;9.678;2022-08-19T02:48:28;24.50;;;19.47;;
7821;SDS011;3956;50.558;9.678;2022-08-19T02:50:59;24.10;;;19.30;;
7821;SDS011;3956;50.558;9.678;2022-08-19T02:53:29;22.90;;;19.40;;
7821;SDS011;3956;50.558;9.678;2022-08-19T02:55:57;25.10;;;19.40;;
7821;SDS011;3956;50.558;9.678;2022-08-19T02:58:26;24.03;;;19.67;;
7821;SDS011;3956;50.558;9.678;2022-08-19T03:00:54;24.47;;;19.87;;
7821;SDS011;3956;50.558;9.678;2022-08-19T03:03:23;23.13;;;19.50;;
7821;SDS011;3956;50.558;9.678;2022-08-19T03:06:02;23.70;;;18.27;;
7821;SDS011;3956;50.558;9.678;2022-08-19T03:08:33;22.37;;;18.70;;
7821;SDS011;3956;50.558;9.678;2022-08-19T03:11:02;23.60;;;18.07;;
7821;SDS011;3956;50.558;9.678;2022-08-19T03:13:31;21.47;;;18.80;;
7821;SDS011;3956;50.558;9.678;2022-08-19T03:15:59;22.97;;;18.93;;
7821;SDS011;3956;50.558;9.678;2022-08-19T03:18:31;21.93;;;18.93;;
7821;SDS011;3956;50.558;9.678;2022-08-19T03:21:00;21.17;;;17.70;;
7821;SDS011;3956;50.558;9.678;2022-08-19T03:23:28;22.50;;;17.03;;
7821;SDS011;3956;50.558;9.678;2022-08-19T03:25:58;19.13;;;17.07;;
7821;SDS011;3956;50.558;9.678;2022-08-19T03:28:42;20.90;;;17.60;;
7821;SDS011;3956;50.558;9.678;2022-08-19T03:31:23;18.67;;;16.60;;
7821;SDS011;3956;50.558;9.678;2022-08-19T03:34:12;19.67;;;16.90;;
7821;SDS011;3956;50.558;9.678;2022-08-19T03:36:43;21.53;;;18.03;;
7821;SDS011;3956;50.558;9.678;2022-08-19T03:39:13;23.37;;;18.27;;
7821;SDS011;3956;50.558;9.678;2022-08-19T03:41:43;22.77;;;19.63;;
7821;SDS011;3956;50.558;9.678;2022-08-19T03:44:14;20.70;;;16.80;;
7821;SDS011;3956;50.558;9.678;2022-08-19T03:46:46;20.97;;;18.23;;
7821;SDS011;3956;50.558;9.678;2022-08-19T03:49:16;22.23;;;18.77;;
7821;SDS011;3956;50.558;9.678;2022-08-19T03:51:46;19.70;;;17.53;;
7821;SDS011;3956;50.558;9.678;2022-08-19T03:54:16;21.40;;;17.93;;
7821;SDS011;3956;50.558;9.678;2022-08-19T03:56:49;21.20;;;18.43;;
7821;SDS011;3956;50.558;9.678;2022-08-19T03:59:20;21.03;;;17.50;;
7821;SDS011;3956;50.558;9.678;2022-08-19T04:01:52;20.73;;;18.13;;
7821;SDS011;3956;50.558;9.678;2022-08-19T04:04:21;22.43;;;18.30;;
7821;SDS011;3956;50.558;9.678;2022-08-19T04:06:54;21.07;;;17.63;;
7821;SDS011;3956;50.558;9.678;2022-08-19T04:09:23;20.37;;;18.07;;
7821;SDS011;3956;50.558;9.678;2022-08-19T04:11:54;26.00;;;19.80;;
7821;SDS011;3956;50.558;9.678;2022-08-19T04:14:25;24.67;;;19.90;;
7821;SDS011;3956;50.558;9.678;2022-08-19T04:16:57;22.03;;;19.00;;
7821;SDS011;3956;50.558;9.678;2022-08-19T04:19:26;23.17;;;19.90;;
7821;SDS011;3956;50.558;9.678;2022-08-19T04:21:56;22.60;;;18.60;;
7821;SDS011;3956;50.558;9.678;2022-08-19T04:24:25;26.87;;;19.67;;
7821;SDS011;3956;50.558;9.678;2022-08-19T04:26:56;24.33;;;19.67;;
7821;SDS011;3956;50.558;9.678;2022-08-19T04:29:26;22.33;;;19.10;;
7821;SDS011;3956;50.558;9.678;2022-08-19T04:31:56;23.23;;;19.83;;
7821;SDS011;3956;50.558;9.678;2022-08-19T04:34:35;21.70;;;19.40;;
7821;SDS011;3956;50.558;9.678;2022-08-19T04:37:25;22.13;;;19.33;;
7821;SDS011;3956;50.558;9.678;2022-08-19T04:40:01;22.23;;;18.33;;
7821;SDS011;3956;50.558;9.678;2022-08-19T04:42:50;22.27;;;18.60;;
7821;SDS011;3956;50.558;9.678;2022-08-19T04:45:20;20.97;;;17.93;;
7821;SDS011;3956;50.558;9.678;2022-08-19T04:47:48;22.40;;;18.90;;
7821;SDS011;3956;50.558;9.678;2022-08-19T04:50:39;20.90;;;17.90;;
7821;SDS011;3956;50.558;9.678;2022-08-19T04:53:09;19.37;;;17.30;;
7821;SDS011;3956;50.558;9.678;2022-08-19T04:55:38;19.67;;;17.07;;
7821;SDS011;3956;50.558;9.678;2022-08-19T04:58:09;21.47;;;17.93;;
7821;SDS011;3956;50.558;9.678;2022-08-19T05:00:38;20.50;;;17.63;;
7821;SDS011;3956;50.558;9.678;2022-08-19T05:03:07;19.03;;;17.03;;
7821;SDS011;3956;50.558;9.678;2022-08-19T05:05:38;21.77;;;17.27;;
7821;SDS011;3956;50.558;9.678;2022-08-19T05:08:10;19.90;;;16.60;;
7821;SDS011;3956;50.558;9.678;2022-08-19T05:10:40;19.50;;;16.67;;
7821;SDS011;3956;50.558;9.678;2022-08-19T05:13:10;19.20;;;17.20;;
7821;SDS011;3956;50.558;9.678;2022-08-19T05:15:39;18.07;;;16.07;;
7821;SDS011;3956;50.558;9.678;2022-08-19T05:18:07;22.20;;;17.30;;
7821;SDS011;3956;50.558;9.678;2022-08-19T05:20:54;20.37;;;17.40;;
7821;SDS011;3956;50.558;9.678;2022-08-19T05:23:40;19.03;;;16.13;;
7821;SDS011;3956;50.558;9.678;2022-08-19T05:26:08;19.87;;;15.90;;
7821;SDS011;3956;50.558;9.678;2022-08-19T05:28:38;19.17;;;16.80;;
7821;SDS011;3956;50.558;9.678;2022-08-19T05:31:07;20.97;;;18.17;;
7821;SDS011;3956;50.558;9.678;2022-08-19T05:33:35;22.87;;;17.90;;
7821;SDS011;3956;50.558;9.678;2022-08-19T05:36:05;20.57;;;18.23;;
7821;SDS011;3956;50.558;9.678;2022-08-19T05:38:36;21.33;;;17.13;;
7821;SDS011;3956;50.558;9.678;2022-08-19T05:41:07;21.17;;;16.93;;
7821;SDS011;3956;50.558;9.678;2022-08-19T05:43:36;17.93;;;16.03;;
7821;SDS011;3956;50.558;9.678;2022-08-19T05:46:06;19.60;;;16.43;;
7821;SDS011;3956;50.558;9.678;2022-08-19T05:48:35;19.17;;;16.53;;
7821;SDS011;3956;50.558;9.678;2022-08-19T05:51:04;19.77;;;16.27;;
7821;SDS011;3956;50.558;9.678;2022-08-19T05:53:34;23.07;;;16.97;;
7821;SDS011;3956;50.558;9.678;2022-08-19T05:56:04;18.73;;;16.00;;
7821;SDS011;3956;50.558;9.678;2022-08-19T05:58:33;20.53;;;15.63;;
7821;SDS011;3956;50.558;9.678;2022-08-19T06:01:02;21.13;;;16.00;;
7821;SDS011;3956;50.558;9.678;2022-08-19T06:03:34;18.53;;;16.00;;
7821;SDS011;3956;50.558;9.678;2022-08-19T06:06:03;18.77;;;16.03;;
7821;SDS011;3956;50.558;9.678;2022-08-19T06:08:33;18.83;;;15.33;;
7821;SDS011;3956;50.558;9.678;2022-08-19T06:11:13;16.77;;;15.07;;
7821;SDS011;3956;50.558;9.678;2022-08-19T06:13:44;17.97;;;15.50;;
7821;SDS011;3956;50.558;9.678;2022-08-19T06:16:25;18.23;;;15.40;;
7821;SDS011;3956;50.558;9.678;2022-08-19T06:18:56;16.13;;;14.43;;
7821;SDS011;3956;50.558;9.678;2022-08-19T06:21:27;16.80;;;14.60;;
7821;SDS011;3956;50.558;9.678;2022-08-19T06:23:56;18.17;;;14.97;;
7821;SDS011;3956;50.558;9.678;2022-08-19T06:26:26;18.07;;;14.50;;
7821;SDS011;3956;50.558;9.678;2022-08-19T06:28:55;18.53;;;14.67;;
7821;SDS011;3956;50.558;9.678;2022-08-19T06:31:24;18.57;;;14.90;;
7821;SDS011;3956;50.558;9.678;2022-08-19T06:33:53;19.20;;;14.57;;
7821;SDS011;3956;50.558;9.678;2022-08-19T06:36:25;18.23;;;14.70;;
7821;SDS011;3956;50.558;9.678;2022-08-19T06:38:56;22.77;;;14.63;;
7821;SDS011;3956;50.558;9.678;2022-08-19T06:41:25;16.97;;;14.80;;
7821;SDS011;3956;50.558;9.678;2022-08-19T06:43:54;17.93;;;14.13;;
7821;SDS011;3956;50.558;9.678;2022-08-19T06:46:23;17.57;;;13.57;;
7821;SDS011;3956;50.558;9.678;2022-08-19T06:48:52;18.83;;;13.20;;
7821;SDS011;3956;50.558;9.678;2022-08-19T06:51:23;15.73;;;13.10;;
7821;SDS011;3956;50.558;9.678;2022-08-19T06:53:57;18.57;;;12.87;;
7821;SDS011;3956;50.558;9.678;2022-08-19T06:56:27;14.93;;;12.63;;
7821;SDS011;3956;50.558;9.678;2022-08-19T06:59:00;14.63;;;11.47;;
7821;SDS011;3956;50.558;9.678;2022-08-19T07:01:30;18.23;;;12.23;;
7821;SDS011;3956;50.558;9.678;2022-08-19T07:04:04;16.67;;;12.37;;
7821;SDS011;3956;50.558;9.678;2022-08-19T07:06:38;13.63;;;12.10;;
7821;SDS011;3956;50.558;9.678;2022-08-19T07:09:10;13.27;;;11.13;;
7821;SDS011;3956;50.558;9.678;2022-08-19T07:11:44;15.27;;;12.50;;
7821;SDS011;3956;50.558;9.678;2022-08-19T07:14:14;12.03;;;10.80;;
7821;SDS011;3956;50.558;9.678;2022-08-19T07:16:45;15.03;;;11.40;;
7821;SDS011;3956;50.558;9.678;2022-08-19T07:19:16;14.33;;;11.20;;
7821;SDS011;3956;50.558;9.678;2022-08-19T07:21:47;16.30;;;11.67;;
7821;SDS011;3956;50.558;9.678;2022-08-19T07:24:19;15.43;;;11.60;;
7821;SDS011;3956;50.558;9.678;2022-08-19T07:26:50;14.80;;;12.30;;
7821;SDS011;3956;50.558;9.678;2022-08-19T07:29:20;13.53;;;12.10;;
7821;SDS011;3956;50.558;9.678;2022-08-19T07:31:54;13.57;;;11.03;;
7821;SDS011;3956;50.558;9.678;2022-08-19T07:34:26;13.37;;;12.00;;
7821;SDS011;3956;50.558;9.678;2022-08-19T07:36:57;14.03;;;12.20;;
7821;SDS011;3956;50.558;9.678;2022-08-19T07:39:27;13.17;;;11.73;;
7821;SDS011;3956;50.558;9.678;2022-08-19T07:41:58;15.07;;;11.20;;
7821;SDS011;3956;50.558;9.678;2022-08-19T07:44:28;15.43;;;11.20;;
7821;SDS011;3956;50.558;9.678;2022-08-19T07:46:57;12.97;;;10.83;;
7821;SDS011;3956;50.558;9.678;2022-08-19T07:49:26;14.80;;;10.30;;
7821;SDS011;3956;50.558;9.678;2022-08-19T07:51:56;11.53;;;9.83;;
7821;SDS011;3956;50.558;9.678;2022-08-19T07:54:29;12.43;;;9.93;;
7821;SDS011;3956;50.558;9.678;2022-08-19T07:57:00;17.43;;;10.07;;
7821;SDS011;3956;50.558;9.678;2022-08-19T07:59:29;10.77;;;9.20;;
7821;SDS011;3956;50.558;9.678;2022-08-19T08:01:58;12.13;;;9.13;;
7821;SDS011;3956;50.558;9.678;2022-08-19T08:04:27;12.60;;;10.00;;
7821;SDS011;3956;50.558;9.678;2022-08-19T08:07:15;9.87;;;8.63;;
7821;SDS011;3956;50.558;9.678;2022-08-19T08:10:01;12.40;;;8.40;;
7821;SDS011;3956;50.558;9.678;2022-08-19T08:12:33;9.70;;;8.23;;
7821;SDS011;3956;50.558;9.678;2022-08-19T08:15:06;10.90;;;7.70;;
7821;SDS011;3956;50.558;9.678;2022-08-19T08:17:38;12.27;;;8.23;;
7821;SDS011;3956;50.558;9.678;2022-08-19T08:20:16;11.07;;;8.17;;
7821;SDS011;3956;50.558;9.678;2022-08-19T08:22:47;12.23;;;8.67;;
7821;SDS011;3956;50.558;9.678;2022-08-19T08:25:34;11.37;;;7.90;;
7821;SDS011;3956;50.558;9.678;2022-08-19T08:28:04;9.27;;;7.10;;
7821;SDS011;3956;50.558;9.678;2022-08-19T08:30:36;8.83;;;6.53;;
7821;SDS011;3956;50.558;9.678;2022-08-19T08:33:10;8.87;;;5.63;;
7821;SDS011;3956;50.558;9.678;2022-08-19T08:35:40;6.00;;;5.23;;
7821;SDS011;3956;50.558;9.678;2022-08-19T08:38:13;6.13;;;4.77;;
7821;SDS011;3956;50.558;9.678;2022-08-19T08:40:44;5.63;;;5.10;;
7821;SDS011;3956;50.558;9.678;2022-08-19T08:43:21;7.47;;;4.90;;
7821;SDS011;3956;50.558;9.678;2022-08-19T08:46:00;5.17;;;4.47;;
7821;SDS011;3956;50.558;9.678;2022-08-19T08:48:38;6.00;;;4.40;;
7821;SDS011;3956;50.558;9.678;2022-08-19T08:51:12;7.47;;;4.80;;
7821;SDS011;3956;50.558;9.678;2022-08-19T08:53:48;5.87;;;4.67;;
7821;SDS011;3956;50.558;9.678;2022-08-19T08:56:22;5.03;;;4.10;;
7821;SDS011;3956;50.558;9.678;2022-08-19T08:58:54;8.20;;;5.10;;
7821;SDS011;3956;50.558;9.678;2022-08-19T09:01:26;6.87;;;4.90;;
7821;SDS011;3956;50.558;9.678;2022-08-19T09:03:56;6.37;;;4.83;;
7821;SDS011;3956;50.558;9.678;2022-08-19T09:06:30;5.97;;;4.60;;
7821;SDS011;3956;50.558;9.678;2022-08-19T09:09:10;8.07;;;5.07;;
7821;SDS011;3956;50.558;9.678;2022-08-19T09:11:47;6.90;;;4.53;;
7821;SDS011;3956;50.558;9.678;2022-08-19T09:14:34;9.23;;;4.40;;
7821;SDS011;3956;50.558;9.678;2022-08-19T09:17:17;5.53;;;4.37;;
7821;SDS011;3956;50.558;9.678;2022-08-19T09:19:52;5.83;;;4.30;;
7821;SDS011;3956;50.558;9.678;2022-08-19T09:22:21;5.83;;;4.27;;
7821;SDS011;3956;50.558;9.678;2022-08-19T09:24:54;4.93;;;4.17;;
7821;SDS011;3956;50.558;9.678;2022-08-19T09:27:24;7.83;;;3.87;;
7821;SDS011;3956;50.558;9.678;2022-08-19T09:30:09;5.23;;;4.00;;
7821;SDS011;3956;50.558;9.678;2022-08-19T09:32:42;6.00;;;3.87;;
7821;SDS011;3956;50.558;9.678;2022-08-19T09:35:12;5.80;;;3.90;;
7821;SDS011;3956;50.558;9.678;2022-08-19T09:37:42;6.80;;;3.30;;
7821;SDS011;3956;50.558;9.678;2022-08-19T09:40:12;4.23;;;3.83;;
7821;SDS011;3956;50.558;9.678;2022-08-19T09:42:41;3.57;;;3.27;;
7821;SDS011;3956;50.558;9.678;2022-08-19T09:45:16;4.07;;;3.20;;
7821;SDS011;3956;50.558;9.678;2022-08-19T09:47:46;3.80;;;3.00;;
7821;SDS011;3956;50.558;9.678;2022-08-19T09:50:15;4.93;;;3.53;;
7821;SDS011;3956;50.558;9.678;2022-08-19T09:52:44;4.37;;;3.23;;
7821;SDS011;3956;50.558;9.678;2022-08-19T09:55:23;4.33;;;3.03;;
7821;SDS011;3956;50.558;9.678;2022-08-19T09:57:57;4.87;;;2.70;;
7821;SDS011;3956;50.558;9.678;2022-08-19T10:00:27;3.77;;;3.00;;
7821;SDS011;3956;50.558;9.678;2022-08-19T10:02:56;6.00;;;3.23;;
7821;SDS011;3956;50.558;9.678;2022-08-19T10:05:26;3.90;;;2.97;;
7821;SDS011;3956;50.558;9.678;2022-08-19T10:08:14;6.27;;;3.10;;
7821;SDS011;3956;50.558;9.678;2022-08-19T10:10:47;4.63;;;2.80;;
7821;SDS011;3956;50.558;9.678;2022-08-19T10:13:18;4.50;;;3.13;;
7821;SDS011;3956;50.558;9.678;2022-08-19T10:15:52;3.60;;;2.73;;
7821;SDS011;3956;50.558;9.678;2022-08-19T10:18:23;3.70;;;2.77;;
7821;SDS011;3956;50.558;9.678;2022-08-19T10:21:01;3.33;;;2.50;;
7821;SDS011;3956;50.558;9.678;2022-08-19T10:23:34;3.80;;;2.83;;
7821;SDS011;3956;50.558;9.678;2022-08-19T10:26:05;3.10;;;2.73;;
7821;SDS011;3956;50.558;9.678;2022-08-19T10:28:35;5.30;;;3.00;;
7821;SDS011;3956;50.558;9.678;2022-08-19T10:31:05;3.47;;;2.80;;
7821;SDS011;3956;50.558;9.678;2022-08-19T10:33:35;3.67;;;2.70;;
7821;SDS011;3956;50.558;9.678;2022-08-19T10:36:20;3.93;;;2.63;;
7821;SDS011;3956;50.558;9.678;2022-08-19T10:38:51;7.17;;;3.13;;
7821;SDS011;3956;50.558;9.678;2022-08-19T10:41:26;4.73;;;3.23;;
7821;SDS011;3956;50.558;9.678;2022-08-19T10:43:56;4.53;;;2.80;;
7821;SDS011;3956;50.558;9.678;2022-08-19T10:46:30;3.50;;;2.60;;
7821;SDS011;3956;50.558;9.678;2022-08-19T10:49:00;4.63;;;3.00;;
7821;SDS011;3956;50.558;9.678;2022-08-19T10:51:30;2.90;;;2.60;;
7821;SDS011;3956;50.558;9.678;2022-08-19T10:54:17;5.20;;;3.00;;
7821;SDS011;3956;50.558;9.678;2022-08-19T10:56:59;3.50;;;2.80;;
7821;SDS011;3956;50.558;9.678;2022-08-19T10:59:28;4.30;;;3.00;;
7821;SDS011;3956;50.558;9.678;2022-08-19T11:02:02;3.40;;;2.80;;
7821;SDS011;3956;50.558;9.678;2022-08-19T11:04:32;5.37;;;2.87;;
7821;SDS011;3956;50.558;9.678;2022-08-19T11:07:01;8.57;;;2.63;;
7821;SDS011;3956;50.558;9.678;2022-08-19T11:09:30;2.87;;;2.40;;
7821;SDS011;3956;50.558;9.678;2022-08-19T11:12:06;4.17;;;2.57;;
7821;SDS011;3956;50.558;9.678;2022-08-19T11:14:35;4.70;;;2.47;;
7821;SDS011;3956;50.558;9.678;2022-08-19T11:17:04;3.63;;;2.50;;
7821;SDS011;3956;50.558;9.678;2022-08-19T11:19:33;3.90;;;2.63;;
7821;SDS011;3956;50.558;9.678;2022-08-19T11:22:02;4.27;;;2.67;;
7821;SDS011;3956;50.558;9.678;2022-08-19T11:24:31;4.13;;;2.60;;
7821;SDS011;3956;50.558;9.678;2022-08-19T11:27:01;2.87;;;2.40;;
7821;SDS011;3956;50.558;9.678;2022-08-19T11:29:33;5.23;;;2.60;;
7821;SDS011;3956;50.558;9.678;2022-08-19T11:32:03;2.90;;;2.30;;
7821;SDS011;3956;50.558;9.678;2022-08-19T11:34:33;4.80;;;2.30;;
7821;SDS011;3956;50.558;9.678;2022-08-19T11:37:02;3.87;;;2.40;;
7821;SDS011;3956;50.558;9.678;2022-08-19T11:39:32;4.83;;;2.57;;
7821;SDS011;3956;50.558;9.678;2022-08-19T11:42:04;2.57;;;2.00;;
7821;SDS011;3956;50.558;9.678;2022-08-19T11:44:55;2.43;;;1.70;;
7821;SDS011;3956;50.558;9.678;2022-08-19T11:47:24;2.23;;;1.93;;
7821;SDS011;3956;50.558;9.678;2022-08-19T11:49:52;2.50;;;1.87;;
7821;SDS011;3956;50.558;9.678;2022-08-19T11:52:21;2.67;;;1.87;;
7821;SDS011;3956;50.558;9.678;2022-08-19T11:54:50;5.20;;;1.83;;
7821;SDS011;3956;50.558;9.678;2022-08-19T11:57:18;1.83;;;1.50;;
7821;SDS011;3956;50.558;9.678;2022-08-19T11:59:50;7.10;;;5.27;;
7821;SDS011;3956;50.558;9.678;2022-08-19T12:02:21;11.13;;;10.07;;
7821;SDS011;3956;50.558;9.678;2022-08-19T12:04:49;2.67;;;1.90;;
7821;SDS011;3956;50.558;9.678;2022-08-19T12:07:18;7.87;;;7.00;;
7821;SDS011;3956;50.558;9.678;2022-08-19T12:09:46;2.53;;;2.33;;
7821;SDS011;3956;50.558;9.678;2022-08-19T12:12:15;2.60;;;1.80;;
7821;SDS011;3956;50.558;9.678;2022-08-19T12:14:43;2.33;;;2.00;;
7821;SDS011;3956;50.558;9.678;2022-08-19T12:17:12;2.67;;;2.37;;
7821;SDS011;3956;50.558;9.678;2022-08-19T12:19:43;2.37;;;2.10;;
7821;SDS011;3956;50.558;9.678;2022-08-19T12:22:11;2.50;;;1.87;;
7821;SDS011;3956;50.558;9.678;2022-08-19T12:24:40;2.33;;;2.13;;
7821;SDS011;3956;50.558;9.678;2022-08-19T12:27:08;3.43;;;2.10;;
7821;SDS011;3956;50.558;9.678;2022-08-19T12:29:38;3.50;;;2.27;;
7821;SDS011;3956;50.558;9.678;2022-08-19T12:32:07;2.80;;;2.10;;
7821;SDS011;3956;50.558;9.678;2022-08-19T12:34:37;4.70;;;3.27;;
7821;SDS011;3956;50.558;9.678;2022-08-19T12:37:07;2.10;;;1.77;;
7821;SDS011;3956;50.558;9.678;2022-08-19T12:39:37;1.97;;;1.70;;
7821;SDS011;3956;50.558;9.678;2022-08-19T12:42:07;2.43;;;1.90;;
7821;SDS011;3956;50.558;9.678;2022-08-19T12:44:37;3.73;;;2.00;;
7821;SDS011;3956;50.558;9.678;2022-08-19T12:47:08;4.50;;;2.50;;
7821;SDS011;3956;50.558;9.678;2022-08-19T12:49:38;5.00;;;1.90;;
7821;SDS011;3956;50.558;9.678;2022-08-19T12:52:21;2.37;;;1.97;;
7821;SDS011;3956;50.558;9.678;2022-08-19T12:54:51;3.10;;;1.93;;
7821;SDS011;3956;50.558;9.678;2022-08-19T12:57:21;3.60;;;2.20;;
7821;SDS011;3956;50.558;9.678;2022-08-19T12:59:59;2.50;;;1.90;;
7821;SDS011;3956;50.558;9.678;2022-08-19T13:02:33;2.53;;;2.03;;
7821;SDS011;3956;50.558;9.678;2022-08-19T13:05:05;2.13;;;1.90;;
7821;SDS011;3956;50.558;9.678;2022-08-19T13:07:37;3.10;;;2.10;;
7821;SDS011;3956;50.558;9.678;2022-08-19T13:10:08;3.13;;;1.97;;
7821;SDS011;3956;50.558;9.678;2022-08-19T13:12:38;2.90;;;2.10;;
7821;SDS011;3956;50.558;9.678;2022-08-19T13:15:08;3.43;;;1.93;;
7821;SDS011;3956;50.558;9.678;2022-08-19T13:17:40;2.23;;;2.00;;
7821;SDS011;3956;50.558;9.678;2022-08-19T13:20:09;2.23;;;2.00;;
7821;SDS011;3956;50.558;9.678;2022-08-19T13:22:39;4.70;;;2.10;;
7821;SDS011;3956;50.558;9.678;2022-08-19T13:25:08;2.10;;;1.90;;
7821;SDS011;3956;50.558;9.678;2022-08-19T13:27:38;2.53;;;1.90;;
7821;SDS011;3956;50.558;9.678;2022-08-19T13:30:08;3.13;;;1.80;;
7821;SDS011;3956;50.558;9.678;2022-08-19T13:32:55;4.07;;;2.27;;
7821;SDS011;3956;50.558;9.678;2022-08-19T13:35:42;3.47;;;2.10;;
7821;SDS011;3956;50.558;9.678;2022-08-19T13:38:14;3.00;;;1.97;;
7821;SDS011;3956;50.558;9.678;2022-08-19T13:40:45;2.10;;;1.90;;
7821;SDS011;3956;50.558;9.678;2022-08-19T13:43:14;2.73;;;2.20;;
7821;SDS011;3956;50.558;9.678;2022-08-19T13:45:49;2.80;;;2.10;;
7821;SDS011;3956;50.558;9.678;2022-08-19T13:48:23;3.53;;;2.33;;
7821;SDS011;3956;50.558;9.678;2022-08-19T13:50:53;2.60;;;2.20;;
7821;SDS011;3956;50.558;9.678;2022-08-19T13:53:23;6.40;;;1.93;;
7821;SDS011;3956;50.558;9.678;2022-08-19T13:55:52;2.00;;;1.80;;
7821;SDS011;3956;50.558;9.678;2022-08-19T13:58:21;4.93;;;2.30;;
7821;SDS011;3956;50.558;9.678;2022-08-19T14:00:50;3.83;;;2.27;;
7821;SDS011;3956;50.558;9.678;2022-08-19T14:03:19;2.60;;;1.80;;
7821;SDS011;3956;50.558;9.678;2022-08-19T14:05:47;3.27;;;2.17;;
7821;SDS011;3956;50.558;9.678;2022-08-19T14:08:16;2.10;;;1.90;;
7821;SDS011;3956;50.558;9.678;2022-08-19T14:10:46;2.67;;;2.27;;
7821;SDS011;3956;50.558;9.678;2022-08-19T14:13:15;2.67;;;2.20;;
7821;SDS011;3956;50.558;9.678;2022-08-19T14:15:45;3.13;;;2.20;;
7821;SDS011;3956;50.558;9.678;2022-08-19T14:18:14;3.23;;;2.37;;
7821;SDS011;3956;50.558;9.678;2022-08-19T14:20:43;6.40;;;2.13;;
7821;SDS011;3956;50.558;9.678;2022-08-19T14:23:12;3.40;;;2.17;;
7821;SDS011;3956;50.558;9.678;2022-08-19T14:25:41;4.37;;;2.40;;
7821;SDS011;3956;50.558;9.678;2022-08-19T14:28:11;2.57;;;2.10;;
7821;SDS011;3956;50.558;9.678;2022-08-19T14:30:39;2.60;;;2.00;;
7821;SDS011;3956;50.558;9.678;2022-08-19T14:33:11;5.27;;;2.30;;
7821;SDS011;3956;50.558;9.678;2022-08-19T14:35:40;2.40;;;2.10;;
7821;SDS011;3956;50.558;9.678;2022-08-19T14:38:14;3.33;;;2.20;;
7821;SDS011;3956;50.558;9.678;2022-08-19T14:41:05;3.27;;;2.27;;
7821;SDS011;3956;50.558;9.678;2022-08-19T14:43:36;5.17;;;2.30;;
7821;SDS011;3956;50.558;9.678;2022-08-19T14:46:05;4.57;;;2.60;;
7821;SDS011;3956;50.558;9.678;2022-08-19T14:48:37;3.20;;;2.53;;
7821;SDS011;3956;50.558;9.678;2022-08-19T14:51:08;3.17;;;2.30;;
7821;SDS011;3956;50.558;9.678;2022-08-19T14:53:37;2.93;;;2.40;;
7821;SDS011;3956;50.558;9.678;2022-08-19T14:56:09;3.83;;;2.20;;
7821;SDS011;3956;50.558;9.678;2022-08-19T14:58:39;2.97;;;2.30;;
7821;SDS011;3956;50.558;9.678;2022-08-19T15:01:09;5.77;;;2.23;;
7821;SDS011;3956;50.558;9.678;2022-08-19T15:03:39;3.40;;;2.13;;
7821;SDS011;3956;50.558;9.678;2022-08-19T15:06:08;5.47;;;2.30;;
7821;SDS011;3956;50.558;9.678;2022-08-19T15:08:39;3.53;;;2.30;;
7821;SDS011;3956;50.558;9.678;2022-08-19T15:11:10;4.03;;;2.80;;
7821;SDS011;3956;50.558;9.678;2022-08-19T15:13:42;3.33;;;2.37;;
7821;SDS011;3956;50.558;9.678;2022-08-19T15:16:13;3.53;;;2.30;;
7821;SDS011;3956;50.558;9.678;2022-08-19T15:18:43;4.27;;;2.30;;
7821;SDS011;3956;50.558;9.678;2022-08-19T15:21:14;3.93;;;2.73;;
7821;SDS011;3956;50.558;9.678;2022-08-19T15:23:52;2.30;;;2.10;;
7821;SDS011;3956;50.558;9.678;2022-08-19T15:26:22;3.87;;;2.47;;
7821;SDS011;3956;50.558;9.678;2022-08-19T15:28:54;3.10;;;2.20;;